createdAt,value
2023-05-05T00:01:51.142Z,61.50
2023-05-05T00:04:17.999Z,58.48
2023-05-05T00:06:44.868Z,61.29
2023-05-05T00:09:30.287Z,62.10
2023-05-05T00:12:15.625Z,62.50
2023-05-05T00:14:42.738Z,60.01
2023-05-05T00:17:10.711Z,57.60
2023-05-05T00:19:37.463Z,58.39
2023-05-05T00:22:04.227Z,59.61
2023-05-05T00:24:31.055Z,59.85
2023-05-05T00:27:16.545Z,65.34
2023-05-05T00:29:43.182Z,59.67
2023-05-05T00:32:09.908Z,59.24
2023-05-05T00:34:38.475Z,58.63
2023-05-05T00:37:05.852Z,58.27
2023-05-05T00:39:33.346Z,58.29
2023-05-05T00:42:01.013Z,57.05
2023-05-05T00:44:41.680Z,60.98
2023-05-05T00:47:09.753Z,58.22
2023-05-05T00:49:37.305Z,59.00
2023-05-05T00:52:05.380Z,59.32
2023-05-05T00:54:33.534Z,59.46
2023-05-05T00:57:02.215Z,65.60
2023-05-05T00:59:31.152Z,58.98
2023-05-05T01:01:58.051Z,62.30
2023-05-05T01:04:26.994Z,59.47
2023-05-05T01:07:13.910Z,63.76
2023-05-05T01:10:15.601Z,65.48
2023-05-05T01:12:55.112Z,63.85
2023-05-05T01:15:40.622Z,63.54
2023-05-05T01:18:13.992Z,61.45
2023-05-05T01:20:46.540Z,64.56
2023-05-05T01:23:25.647Z,62.85
2023-05-05T01:26:07.529Z,61.66
2023-05-05T01:29:12.153Z,68.12
2023-05-05T01:31:54.992Z,68.13
2023-05-05T01:34:28.274Z,69.00
2023-05-05T01:37:12.123Z,66.01
2023-05-05T01:39:41.321Z,63.32
2023-05-05T01:42:14.048Z,62.28
2023-05-05T01:44:46.695Z,63.52
2023-05-05T01:47:16.207Z,64.69
2023-05-05T01:49:47.801Z,63.35
2023-05-05T01:52:16.064Z,61.30
2023-05-05T01:54:46.676Z,62.01
2023-05-05T01:57:14.763Z,61.07
2023-05-05T01:59:41.411Z,60.16
2023-05-05T02:02:12.352Z,64.73
2023-05-05T02:04:43.784Z,62.24
2023-05-05T02:07:12.766Z,62.87
2023-05-05T02:09:41.032Z,61.19
2023-05-05T02:12:08.585Z,62.75
2023-05-05T02:14:37.136Z,63.07
2023-05-05T02:17:04.251Z,62.18
2023-05-05T02:19:39.790Z,63.11
2023-05-05T02:22:06.817Z,61.43
2023-05-05T02:24:34.171Z,63.46
2023-05-05T02:27:03.866Z,61.19
2023-05-05T02:29:47.035Z,72.72
2023-05-05T02:32:37.621Z,66.97
2023-05-05T02:35:36.732Z,68.88
2023-05-05T02:38:05.710Z,63.88
2023-05-05T02:40:40.824Z,69.29
2023-05-05T02:43:11.542Z,63.79
2023-05-05T02:45:38.434Z,60.96
2023-05-05T02:48:06.782Z,62.35
2023-05-05T02:50:33.722Z,64.18
2023-05-05T02:53:01.715Z,62.19
2023-05-05T02:55:37.175Z,63.87
2023-05-05T02:58:16.480Z,62.31
2023-05-05T03:01:04.999Z,66.33
2023-05-05T03:03:43.339Z,63.40
2023-05-05T03:06:24.986Z,67.43
2023-05-05T03:09:03.556Z,68.03
2023-05-05T03:11:41.309Z,67.36
2023-05-05T03:14:11.824Z,63.79
2023-05-05T03:16:40.993Z,64.57
2023-05-05T03:19:11.495Z,65.03
2023-05-05T03:21:39.213Z,62.46
2023-05-05T03:24:19.507Z,66.38
2023-05-05T03:26:48.011Z,64.34
2023-05-05T03:29:33.424Z,69.80
2023-05-05T03:32:01.499Z,65.24
2023-05-05T03:34:28.142Z,64.41
2023-05-05T03:36:54.794Z,64.77
2023-05-05T03:39:21.519Z,64.22
2023-05-05T03:41:48.186Z,67.77
2023-05-05T03:44:17.749Z,66.19
2023-05-05T03:46:44.500Z,65.21
2023-05-05T03:49:11.247Z,68.97
2023-05-05T03:51:39.231Z,67.21
2023-05-05T03:54:05.913Z,64.10
2023-05-05T03:56:33.434Z,63.63
2023-05-05T03:59:00.068Z,66.06
2023-05-05T04:01:27.020Z,68.62
2023-05-05T04:03:53.742Z,67.24
2023-05-05T04:06:20.455Z,67.53
2023-05-05T04:08:47.120Z,64.04
2023-05-05T04:11:14.622Z,64.09
2023-05-05T04:13:41.795Z,69.01
2023-05-05T04:16:09.393Z,67.48
2023-05-05T04:18:36.338Z,65.17
2023-05-05T04:21:05.684Z,68.82
2023-05-05T04:23:32.329Z,65.90
2023-05-05T04:25:59.037Z,64.03
2023-05-05T04:28:25.709Z,69.62
2023-05-05T04:30:52.426Z,69.36
2023-05-05T04:33:19.178Z,66.71
2023-05-05T04:35:48.700Z,67.32
2023-05-05T04:38:15.344Z,72.65
2023-05-05T04:40:42.975Z,69.75
2023-05-05T04:43:09.702Z,67.19
2023-05-05T04:45:36.420Z,67.31
2023-05-05T04:48:07.910Z,67.98
2023-05-05T04:50:34.649Z,65.13
2023-05-05T04:53:01.263Z,65.50
2023-05-05T04:55:29.438Z,68.34
2023-05-05T04:57:57.006Z,65.12
2023-05-05T05:00:24.086Z,72.20
2023-05-05T05:02:50.743Z,66.99
2023-05-05T05:05:18.449Z,68.82
2023-05-05T05:07:47.197Z,65.88
2023-05-05T05:10:15.579Z,70.43
2023-05-05T05:12:42.409Z,67.56
2023-05-05T05:15:10.130Z,68.18
2023-05-05T05:17:36.823Z,68.00
2023-05-05T05:20:05.103Z,66.42
2023-05-05T05:22:32.412Z,68.52
2023-05-05T05:24:59.322Z,67.86
2023-05-05T05:27:44.774Z,72.47
2023-05-05T05:30:13.597Z,70.88
2023-05-05T05:32:40.273Z,65.68
2023-05-05T05:35:07.276Z,62.12
2023-05-05T05:37:37.268Z,62.46
2023-05-05T05:40:05.401Z,61.86
2023-05-05T05:42:34.236Z,61.02
2023-05-05T05:45:01.567Z,60.22
2023-05-05T05:47:28.414Z,60.75
2023-05-05T05:49:55.028Z,60.21
2023-05-05T05:52:21.631Z,60.09
2023-05-05T05:54:49.545Z,60.81
2023-05-05T05:57:16.202Z,61.38
2023-05-05T05:59:42.902Z,61.98
2023-05-05T06:02:09.771Z,61.90
2023-05-05T06:04:36.681Z,62.65
2023-05-05T06:07:03.426Z,62.93
2023-05-05T06:09:32.711Z,62.68
2023-05-05T06:11:59.310Z,63.16
2023-05-05T06:14:27.736Z,64.03
2023-05-05T06:16:55.286Z,64.22
2023-05-05T06:19:21.905Z,64.90
2023-05-05T06:21:48.533Z,60.41
2023-05-05T06:24:15.837Z,65.62
2023-05-05T06:26:42.539Z,65.00
2023-05-05T06:29:11.032Z,63.08
2023-05-05T06:31:38.871Z,65.71
2023-05-05T06:34:05.576Z,64.55
2023-05-05T06:36:32.524Z,61.69
2023-05-05T06:39:00.194Z,67.01
2023-05-05T06:41:27.975Z,68.78
2023-05-05T06:43:55.221Z,65.94
2023-05-05T06:46:21.851Z,67.08
2023-05-05T06:48:48.977Z,67.29
2023-05-05T06:51:16.202Z,62.99
2023-05-05T06:53:42.906Z,56.88
2023-05-05T06:56:09.623Z,69.50
2023-05-05T06:58:36.587Z,70.92
2023-05-05T07:01:04.104Z,70.60
2023-05-05T07:03:31.170Z,60.22
2023-05-05T07:05:57.867Z,69.59
2023-05-05T07:08:30.423Z,65.95
2023-05-05T07:10:57.039Z,58.78
2023-05-05T07:13:23.704Z,69.75
2023-05-05T07:15:50.494Z,70.01
2023-05-05T07:18:17.268Z,69.36
2023-05-05T07:20:46.790Z,70.74
2023-05-05T07:23:13.373Z,68.42
2023-05-05T07:25:40.077Z,67.43
2023-05-05T07:28:06.845Z,66.22
2023-05-05T07:30:33.568Z,65.70
2023-05-05T07:33:00.343Z,66.42
2023-05-05T07:35:46.140Z,52.81
2023-05-05T07:38:12.847Z,63.07
2023-05-05T07:40:39.424Z,62.17
2023-05-05T07:43:06.151Z,57.87
2023-05-05T07:45:33.178Z,59.65
2023-05-05T07:48:02.244Z,53.09
2023-05-05T07:50:28.902Z,56.61
2023-05-05T07:53:02.546Z,54.25
2023-05-05T07:55:40.134Z,56.92
2023-05-05T07:58:12.790Z,55.54
2023-05-05T08:00:39.852Z,55.20
2023-05-05T08:03:11.378Z,53.22
2023-05-05T08:05:38.715Z,54.85
2023-05-05T08:08:07.055Z,55.17
2023-05-05T08:10:33.716Z,54.12
2023-05-05T08:13:00.419Z,55.45
2023-05-05T08:15:27.148Z,54.64
2023-05-05T08:17:57.257Z,55.28
2023-05-05T08:20:28.677Z,55.75
2023-05-05T08:22:55.253Z,56.44
2023-05-05T08:25:23.430Z,56.36
2023-05-05T08:27:52.881Z,55.77
2023-05-05T08:30:21.489Z,55.87
2023-05-05T08:32:48.190Z,55.38
2023-05-05T08:35:18.311Z,55.44
2023-05-05T08:37:45.276Z,55.16
2023-05-05T08:40:37.638Z,55.11
2023-05-05T08:43:06.009Z,55.01
2023-05-05T08:45:33.298Z,54.92
2023-05-05T08:48:05.322Z,54.77
2023-05-05T08:50:32.642Z,53.89
2023-05-05T08:53:02.303Z,54.45
2023-05-05T08:55:34.621Z,54.44
2023-05-05T08:58:04.202Z,54.28
2023-05-05T09:00:32.512Z,54.80
2023-05-05T09:03:02.343Z,54.23
2023-05-05T09:05:29.819Z,54.71
2023-05-05T09:07:57.051Z,54.60
2023-05-05T09:10:26.164Z,53.78
2023-05-05T09:12:52.888Z,53.43
2023-05-05T09:15:19.587Z,53.00
2023-05-05T09:17:47.187Z,53.31
2023-05-05T09:20:14.844Z,53.10
2023-05-05T09:22:44.888Z,52.15
2023-05-05T09:25:14.363Z,53.21
2023-05-05T09:27:43.229Z,52.54
2023-05-05T09:30:15.583Z,52.43
2023-05-05T09:32:49.172Z,52.30
2023-05-05T09:35:18.530Z,49.19
2023-05-05T09:37:45.297Z,51.80
2023-05-05T09:40:18.097Z,51.52
2023-05-05T09:42:45.533Z,52.47
2023-05-05T09:45:17.935Z,52.12
2023-05-05T09:47:48.164Z,51.04
2023-05-05T09:50:18.852Z,52.46
2023-05-05T09:53:01.298Z,52.42
2023-05-05T09:55:28.174Z,51.69
2023-05-05T09:57:54.890Z,50.72
2023-05-05T10:00:22.205Z,51.34
2023-05-05T10:02:48.996Z,51.40
2023-05-05T10:05:19.135Z,48.84
2023-05-05T10:07:47.476Z,49.90
2023-05-05T10:10:18.639Z,48.06
2023-05-05T10:12:50.005Z,50.07
2023-05-05T10:15:16.922Z,50.36
2023-05-05T10:20:20.646Z,45.99
2023-05-05T10:22:56.852Z,47.26
2023-05-05T10:25:35.221Z,50.61
2023-05-05T10:28:06.957Z,47.54
2023-05-05T10:30:39.286Z,51.26
2023-05-05T10:35:53.023Z,50.71
2023-05-05T10:38:20.871Z,49.18
2023-05-05T10:40:48.980Z,50.42
2023-05-05T10:43:15.794Z,50.26
2023-05-05T10:45:43.525Z,50.91
2023-05-05T10:48:27.824Z,50.62
2023-05-05T10:51:06.305Z,50.70
2023-05-05T10:53:41.660Z,49.89
2023-05-05T10:56:10.959Z,49.44
2023-05-05T10:58:55.550Z,50.72
2023-05-05T11:01:33.680Z,48.32
2023-05-05T11:04:23.772Z,49.26
2023-05-05T11:07:09.818Z,48.07
2023-05-05T11:10:01.682Z,47.12
2023-05-05T11:12:32.336Z,50.02
2023-05-05T11:15:25.088Z,48.29
2023-05-05T11:17:53.039Z,51.53
2023-05-05T11:20:40.956Z,49.79
2023-05-05T11:23:07.713Z,51.67
2023-05-05T11:25:42.126Z,48.13
2023-05-05T11:28:12.879Z,51.05
2023-05-05T11:30:58.672Z,50.42
2023-05-05T11:33:37.222Z,49.29
2023-05-05T11:36:09.078Z,51.15
2023-05-05T11:38:51.079Z,51.83
2023-05-05T11:41:33.753Z,50.61
2023-05-05T11:44:17.261Z,52.33
2023-05-05T11:46:53.138Z,54.52
2023-05-05T11:49:34.868Z,55.12
2023-05-05T11:52:03.668Z,54.56
2023-05-05T11:54:31.254Z,54.15
2023-05-05T11:57:02.054Z,54.35
2023-05-05T11:59:28.725Z,54.21
2023-05-05T12:01:55.722Z,53.86
2023-05-05T12:04:22.495Z,53.67
2023-05-05T12:06:49.280Z,53.63
2023-05-05T12:09:20.652Z,53.83
2023-05-05T12:11:55.448Z,54.15
2023-05-05T12:14:23.760Z,53.45
2023-05-05T12:16:57.113Z,52.91
2023-05-05T12:19:32.985Z,52.99
2023-05-05T12:22:03.975Z,53.72
2023-05-05T12:24:32.513Z,53.77
2023-05-05T12:27:13.272Z,54.78
2023-05-05T12:29:41.548Z,54.11
2023-05-05T12:32:18.707Z,53.74
2023-05-05T12:34:45.778Z,53.10
2023-05-05T12:37:12.700Z,52.42
2023-05-05T12:39:39.383Z,53.02
2023-05-05T12:42:07.186Z,52.90
2023-05-05T12:44:37.849Z,52.32
2023-05-05T12:47:05.415Z,52.79
2023-05-05T12:49:54.177Z,51.59
2023-05-05T12:52:21.149Z,52.62
2023-05-05T12:54:58.674Z,52.31
2023-05-05T12:57:29.961Z,52.96
2023-05-05T12:59:58.369Z,52.33
2023-05-05T13:02:35.177Z,50.47
2023-05-05T13:05:01.852Z,50.42
2023-05-05T13:07:31.425Z,54.35
2023-05-05T13:10:10.990Z,57.58
2023-05-05T13:12:37.765Z,60.96
2023-05-05T13:15:04.683Z,64.95
2023-05-05T13:17:34.610Z,68.03
2023-05-05T13:20:01.419Z,68.99
2023-05-05T13:22:28.998Z,78.79
2023-05-05T13:24:55.560Z,76.78
2023-05-05T13:27:23.774Z,79.64
2023-05-05T13:29:50.468Z,87.50
2023-05-05T13:32:17.088Z,90.27
2023-05-05T13:34:44.253Z,90.90
2023-05-05T13:37:10.934Z,92.18
2023-05-05T13:39:40.892Z,91.44
2023-05-05T13:42:07.494Z,80.71
2023-05-05T13:44:35.345Z,93.58
2023-05-05T13:47:03.078Z,85.73
2023-05-05T13:49:29.859Z,84.23
2023-05-05T13:51:56.583Z,88.29
2023-05-05T13:54:23.262Z,97.06
2023-05-05T13:56:49.909Z,88.27
2023-05-05T13:59:19.200Z,81.84
2023-05-05T14:01:46.021Z,94.35
2023-05-05T14:04:12.715Z,82.22
2023-05-05T14:06:39.484Z,86.79
2023-05-05T14:09:07.725Z,93.74
2023-05-05T14:11:34.370Z,81.29
2023-05-05T14:14:01.665Z,83.56
2023-05-05T14:16:29.443Z,84.30
2023-05-05T14:18:56.153Z,89.99
2023-05-05T14:21:22.692Z,83.17
2023-05-05T14:23:49.353Z,82.92
2023-05-05T14:26:16.118Z,83.97
2023-05-05T14:28:43.630Z,86.06
2023-05-05T14:31:11.271Z,93.14
2023-05-05T14:33:37.981Z,85.20
2023-05-05T14:36:04.914Z,92.01
2023-05-05T14:38:31.497Z,87.57
2023-05-05T14:40:58.989Z,88.89
2023-05-05T14:43:25.723Z,94.46
2023-05-05T14:45:52.979Z,83.42
2023-05-05T14:48:26.955Z,92.90
2023-05-05T14:50:53.521Z,96.54
2023-05-05T14:53:20.398Z,89.71
2023-05-05T14:55:47.972Z,91.31
2023-05-05T14:58:18.706Z,81.73
2023-05-05T15:00:45.429Z,84.36
2023-05-05T15:03:17.904Z,86.28
2023-05-05T15:05:44.543Z,94.23
2023-05-05T15:08:11.567Z,84.41
2023-05-05T15:10:38.173Z,95.45
2023-05-05T15:13:06.674Z,98.91
2023-05-05T15:15:33.294Z,98.05
2023-05-05T15:17:59.880Z,99.89
2023-05-05T15:20:26.734Z,92.81
2023-05-05T15:22:54.889Z,100.00
2023-05-05T15:25:22.477Z,90.19
2023-05-05T15:27:49.412Z,81.17
2023-05-05T15:30:16.124Z,91.91
2023-05-05T15:32:42.794Z,99.32
2023-05-05T15:35:09.748Z,96.52
2023-05-05T15:37:37.910Z,85.99
2023-05-05T15:40:07.960Z,95.57
2023-05-05T15:42:34.860Z,91.41
2023-05-05T15:45:01.880Z,86.23
2023-05-05T15:47:28.753Z,80.71
2023-05-05T15:49:57.351Z,84.03
2023-05-05T15:52:24.028Z,78.24
2023-05-05T15:54:51.610Z,81.48
2023-05-05T15:57:18.284Z,87.33
2023-05-05T15:59:46.525Z,78.60
2023-05-05T16:02:13.311Z,76.67
2023-05-05T16:04:39.903Z,81.91
2023-05-05T16:07:06.565Z,77.44
2023-05-05T16:09:33.235Z,72.68
2023-05-05T16:11:59.953Z,74.81
2023-05-05T16:14:27.956Z,74.26
2023-05-05T16:16:55.555Z,75.45
2023-05-05T16:19:41.060Z,74.86
2023-05-05T16:22:07.790Z,71.61
2023-05-05T16:24:34.863Z,72.14
2023-05-05T16:27:01.545Z,69.70
2023-05-05T16:29:28.263Z,70.45
2023-05-05T16:31:55.051Z,70.24
2023-05-05T16:34:21.924Z,69.59
2023-05-05T16:36:48.539Z,69.99
2023-05-05T16:39:21.316Z,69.76
2023-05-05T16:41:48.100Z,70.86
2023-05-05T16:44:14.836Z,69.26
2023-05-05T16:46:42.766Z,68.65
2023-05-05T16:49:09.437Z,68.43
2023-05-05T16:51:37.417Z,70.78
2023-05-05T16:54:04.064Z,68.70
2023-05-05T16:56:49.503Z,73.01
2023-05-05T16:59:18.344Z,68.91
2023-05-05T17:01:45.188Z,72.30
2023-05-05T17:04:11.951Z,71.57
2023-05-05T17:06:42.348Z,69.53
2023-05-05T17:09:09.713Z,70.10
2023-05-05T17:11:36.453Z,69.51
2023-05-05T17:14:06.012Z,72.17
2023-05-05T17:16:35.610Z,75.07
2023-05-05T17:19:02.326Z,72.69
2023-05-05T17:21:29.245Z,72.66
2023-05-05T17:23:58.024Z,72.54
2023-05-05T17:26:24.790Z,81.17
2023-05-05T17:28:52.142Z,73.64
2023-05-05T17:31:18.740Z,72.24
2023-05-05T17:33:46.251Z,70.80
2023-05-05T17:36:12.962Z,79.08
2023-05-05T17:38:41.398Z,76.59
2023-05-05T17:41:08.047Z,79.01
2023-05-05T17:43:35.228Z,74.33
2023-05-05T17:46:01.869Z,73.38
2023-05-05T17:48:28.609Z,75.76
2023-05-05T17:50:55.974Z,71.43
2023-05-05T17:53:25.321Z,73.76
2023-05-05T17:55:51.828Z,72.06
2023-05-05T17:58:18.778Z,74.07
2023-05-05T18:00:45.646Z,77.96
2023-05-05T18:03:12.967Z,76.73
2023-05-05T18:05:39.778Z,75.54
2023-05-05T18:08:06.942Z,74.56
2023-05-05T18:10:33.927Z,79.08
2023-05-05T18:13:00.604Z,75.67
2023-05-05T18:15:27.391Z,75.64
2023-05-05T18:17:56.249Z,73.70
2023-05-05T18:20:22.883Z,71.46
2023-05-05T18:22:52.336Z,74.90
2023-05-05T18:25:19.221Z,72.85
2023-05-05T18:27:46.336Z,72.41
2023-05-05T18:30:13.258Z,72.71
2023-05-05T18:32:40.363Z,72.70
2023-05-05T18:35:07.787Z,71.69
2023-05-05T18:37:35.336Z,73.95
2023-05-05T18:40:01.975Z,72.30
2023-05-05T18:42:30.465Z,73.89
2023-05-05T18:44:57.232Z,70.39
2023-05-05T18:47:23.932Z,74.32
2023-05-05T18:49:50.478Z,72.47
2023-05-05T18:52:18.816Z,74.46
2023-05-05T18:54:45.592Z,71.09
2023-05-05T18:57:12.300Z,71.28
2023-05-05T18:59:38.965Z,70.76
2023-05-05T19:02:07.525Z,72.51
2023-05-05T19:04:37.414Z,71.79
2023-05-05T19:07:04.884Z,77.80
2023-05-05T19:09:31.714Z,80.44
2023-05-05T19:12:02.923Z,78.18
2023-05-05T19:14:29.792Z,81.50
2023-05-05T19:16:59.028Z,80.06
2023-05-05T19:19:26.020Z,84.39
2023-05-05T19:21:52.648Z,84.20
2023-05-05T19:24:19.282Z,79.80
2023-05-05T19:26:46.322Z,78.06
2023-05-05T19:29:13.182Z,79.77
2023-05-05T19:31:42.678Z,80.92
2023-05-05T19:34:09.266Z,82.41
2023-05-05T19:36:38.144Z,84.98
2023-05-05T19:39:05.133Z,82.95
2023-05-05T19:41:35.179Z,85.27
2023-05-05T19:44:01.909Z,83.25
2023-05-05T19:46:28.712Z,86.54
2023-05-05T19:48:57.016Z,85.26
2023-05-05T19:51:23.724Z,87.98
2023-05-05T19:53:51.955Z,81.34
2023-05-05T19:56:18.733Z,83.77
2023-05-05T19:59:01.886Z,90.94
2023-05-05T20:01:30.151Z,90.33
2023-05-05T20:03:57.357Z,91.38
2023-05-05T20:06:24.385Z,92.59
2023-05-05T20:08:52.285Z,93.51
2023-05-05T20:11:20.182Z,89.97
2023-05-05T20:13:50.293Z,89.34
2023-05-05T20:16:17.175Z,92.60
2023-05-05T20:18:44.227Z,94.38
2023-05-05T20:21:10.993Z,91.92
2023-05-05T20:23:56.362Z,99.31
2023-05-05T20:26:24.612Z,95.03
2023-05-05T20:28:51.403Z,94.20
2023-05-05T20:31:19.854Z,94.65
2023-05-05T20:33:46.565Z,93.33
2023-05-05T20:36:13.354Z,92.78
2023-05-05T20:38:39.979Z,84.00
2023-05-05T20:41:09.406Z,86.85
2023-05-05T20:43:36.745Z,91.24
2023-05-05T20:46:03.368Z,94.28
2023-05-05T20:48:33.353Z,95.42
2023-05-05T20:51:03.540Z,93.59
2023-05-05T20:53:30.696Z,98.54
2023-05-05T20:55:57.467Z,100.00
2023-05-05T20:58:42.948Z,95.33
2023-05-05T21:01:09.563Z,95.70
2023-05-05T21:03:36.518Z,94.42
2023-05-05T21:06:03.170Z,95.96
2023-05-05T21:08:30.112Z,100.00
2023-05-05T21:10:56.805Z,100.00
2023-05-05T21:13:23.532Z,100.00
2023-05-05T21:15:50.485Z,96.69
2023-05-05T21:18:17.073Z,96.34
2023-05-05T21:20:43.684Z,100.00
2023-05-05T21:23:10.866Z,98.17
2023-05-05T21:25:37.604Z,99.68
2023-05-05T21:28:04.368Z,97.08
2023-05-05T21:30:31.201Z,100.00
2023-05-05T21:32:57.906Z,92.78
2023-05-05T21:35:24.622Z,91.67
2023-05-05T21:37:52.440Z,89.55
2023-05-05T21:40:19.108Z,86.35
2023-05-05T21:42:45.748Z,89.74
2023-05-05T21:45:14.977Z,87.64
2023-05-05T21:47:43.027Z,90.39
2023-05-05T21:50:10.967Z,96.37
2023-05-05T21:52:37.897Z,94.33
2023-05-05T21:55:04.968Z,91.53
2023-05-05T21:57:31.542Z,91.87
2023-05-05T21:59:58.151Z,92.22
2023-05-05T22:02:24.942Z,88.32
2023-05-05T22:05:10.556Z,90.58
2023-05-05T22:07:37.486Z,96.70
2023-05-05T22:10:04.429Z,95.84
2023-05-05T22:12:31.064Z,91.29
2023-05-05T22:15:03.293Z,89.80
2023-05-05T22:17:29.888Z,98.41
2023-05-05T22:19:56.883Z,100.00
2023-05-05T22:22:23.471Z,100.00
2023-05-05T22:24:50.046Z,100.00
2023-05-05T22:27:16.730Z,95.33
2023-05-05T22:29:43.331Z,93.61
2023-05-05T22:32:09.923Z,89.26
2023-05-05T22:34:37.929Z,92.57
2023-05-05T22:37:05.579Z,91.75
2023-05-05T22:39:33.325Z,85.56
2023-05-05T22:42:00.130Z,92.04
2023-05-05T22:44:26.755Z,89.26
2023-05-05T22:46:53.479Z,83.45
2023-05-05T22:49:20.323Z,86.22
2023-05-05T22:51:48.108Z,86.41
2023-05-05T22:54:14.788Z,84.92
2023-05-05T22:56:41.371Z,87.79
2023-05-05T22:59:08.161Z,92.46
2023-05-05T23:01:35.494Z,84.19
2023-05-05T23:04:02.465Z,88.63
2023-05-05T23:06:29.554Z,89.61
2023-05-05T23:08:56.151Z,83.78
2023-05-05T23:11:22.818Z,86.69
2023-05-05T23:13:49.371Z,79.94
2023-05-05T23:16:16.673Z,85.47
2023-05-05T23:18:43.332Z,82.96
2023-05-05T23:21:10.471Z,84.41
2023-05-05T23:23:37.013Z,84.09
2023-05-05T23:26:03.875Z,79.67
2023-05-05T23:28:30.985Z,82.43
2023-05-05T23:30:57.640Z,83.31
2023-05-05T23:33:24.427Z,84.97
2023-05-05T23:35:51.392Z,82.84
2023-05-05T23:38:17.998Z,85.59
2023-05-05T23:40:44.657Z,80.96
2023-05-05T23:43:12.086Z,87.50
2023-05-05T23:45:38.820Z,91.93
2023-05-05T23:48:05.820Z,87.32
2023-05-05T23:50:32.612Z,100.00
2023-05-05T23:52:59.296Z,97.53
2023-05-05T23:55:25.880Z,95.75
2023-05-05T23:57:53.145Z,92.18
